Time;durP1;ratioP1;P1;durP2;ratioP2;P2;SDS_P1;SDS_P2;PMS_P1;PMS_P2;Temp;Humidity;BMP_temperature;BMP_pressure;BME280_temperature;BME280_humidity;BME280_pressure;Samples;Min_cycle;Max_cycle;Signal;HPM_P1;HPM_P2
2023/04/05 00:00:27;;;;;;;;;;;2.60;99.90;;;;;;4991761;28;19912;-72
2023/04/05 00:02:54;;;;;;;;;;;2.50;99.90;;;;;;5005318;28;19913;-72
2023/04/05 00:05:28;;;;;;;;;;;2.50;99.90;;;;;;5000635;28;19912;-72
2023/04/05 00:07:55;;;;;;;;;;;2.50;99.90;;;;;;5005071;28;19920;-72
2023/04/05 00:10:21;;;;;;;;;;;2.40;99.90;;;;;;4985539;28;19917;-72
2023/04/05 00:12:46;;;;;;;;;;;2.50;99.90;;;;;;5004669;28;20387;-72
2023/04/05 00:15:12;;;;;;;;;;;2.50;99.90;;;;;;4985887;28;19996;-72
2023/04/05 00:17:37;;;;;;;;;;;2.50;99.90;;;;;;4996173;28;19924;-72
2023/04/05 00:20:06;;;;;;;;;;;2.40;99.90;;;;;;4993000;28;19913;-72
2023/04/05 00:22:34;;;;;;;;;;;2.40;99.90;;;;;;5019078;28;19914;-72
2023/04/05 00:25:03;;;;;;;;;;;2.40;99.90;;;;;;4991363;28;20238;-72
2023/04/05 00:27:29;;;;;;;;;;;2.40;99.90;;;;;;5001392;28;19909;-72
2023/04/05 00:29:55;;;;;;;;;;;2.40;99.90;;;;;;4988584;28;19920;-72
2023/04/05 00:32:21;;;;;;;;;;;2.40;99.90;;;;;;5031342;28;20257;-72
2023/04/05 00:34:46;;;;;;;;;;;2.40;99.90;;;;;;5014578;28;19913;-71
2023/04/05 00:37:12;;;;;;;;;;;2.30;99.90;;;;;;4990129;28;20020;-72
2023/04/05 00:39:38;;;;;;;;;;;2.20;99.90;;;;;;5014234;28;19932;-72
2023/04/05 00:42:05;;;;;;;;;;;2.20;99.90;;;;;;5007521;28;19913;-72
2023/04/05 00:44:33;;;;;;;;;;;2.20;99.90;;;;;;5011895;28;19920;-72
2023/04/05 00:47:02;;;;;;;;;;;2.20;99.90;;;;;;5000796;28;19913;-72
2023/04/05 00:49:31;;;;;;;;;;;2.10;99.90;;;;;;4988004;28;19913;-71
2023/04/05 00:51:57;;;;;;;;;;;2.10;99.90;;;;;;4999409;28;19932;-72
2023/04/05 00:54:29;;;;;;;;;;;2.10;99.90;;;;;;4999175;28;19913;-72
2023/04/05 00:57:01;;;;;;;;;;;2.20;99.90;;;;;;5000513;28;19921;-72
2023/04/05 00:59:27;;;;;;;;;;;2.20;99.90;;;;;;4996517;28;19951;-72
2023/04/05 01:02:05;;;;;;;;;;;2.10;99.90;;;;;;5024208;28;19913;-72
2023/04/05 01:04:31;;;;;;;;;;;2.10;99.90;;;;;;4994876;28;19913;-72
2023/04/05 01:06:59;;;;;;;;;;;2.20;99.90;;;;;;5020073;28;19912;-72
2023/04/05 01:09:44;;;;;;;;;;;2.10;99.90;;;;;;5018021;28;19972;-72
2023/04/05 01:12:11;;;;;;;;;;;2.10;99.90;;;;;;5007794;28;19921;-71
2023/04/05 01:14:48;;;;;;;;;;;2.00;99.90;;;;;;5000504;28;19924;-71
2023/04/05 01:17:15;;;;;;;;;;;2.00;99.90;;;;;;4986119;28;19924;-71
2023/04/05 01:19:41;;;;;;;;;;;2.00;99.90;;;;;;5002742;28;19912;-71
2023/04/05 01:22:26;;;;;;;;;;;1.90;99.90;;;;;;4994786;28;20286;-72
2023/04/05 01:25:01;;;;;;;;;;;1.80;99.90;;;;;;5021096;28;19913;-71
2023/04/05 01:27:47;;;;;;;;;;;1.90;99.90;;;;;;5027911;28;20286;-71
2023/04/05 01:30:28;;;;;;;;;;;1.80;99.90;;;;;;5019168;28;19920;-71
2023/04/05 01:32:58;;;;;;;;;;;1.90;99.90;;;;;;5004169;28;20412;-71
2023/04/05 01:35:25;;;;;;;;;;;1.80;99.90;;;;;;4994443;28;20045;-71
2023/04/05 01:37:52;;;;;;;;;;;1.90;99.90;;;;;;5006247;28;19932;-71
2023/04/05 01:40:18;;;;;;;;;;;1.90;99.90;;;;;;4994576;28;19908;-71
2023/04/05 01:42:45;;;;;;;;;;;1.90;99.90;;;;;;5015465;28;20234;-72
2023/04/05 01:45:11;;;;;;;;;;;1.90;99.90;;;;;;4986600;28;20376;-71
2023/04/05 01:47:36;;;;;;;;;;;1.90;99.90;;;;;;5020711;28;20000;-71
2023/04/05 01:50:02;;;;;;;;;;;1.90;99.90;;;;;;4988402;28;19913;-71
2023/04/05 01:52:27;;;;;;;;;;;1.80;99.90;;;;;;5010179;28;19924;-71
2023/04/05 01:54:53;;;;;;;;;;;1.80;99.90;;;;;;5028538;28;20237;-71
2023/04/05 01:57:19;;;;;;;;;;;1.70;99.90;;;;;;5003377;28;19928;-71
2023/04/05 01:59:44;;;;;;;;;;;1.70;99.90;;;;;;5016989;28;19917;-71
2023/04/05 02:02:10;;;;;;;;;;;1.80;99.90;;;;;;5028782;28;19912;-71
2023/04/05 02:04:36;;;;;;;;;;;1.70;99.90;;;;;;5003444;28;20407;-71
2023/04/05 02:07:02;;;;;;;;;;;1.80;99.90;;;;;;5022165;28;19909;-71
2023/04/05 02:09:28;;;;;;;;;;;1.70;99.90;;;;;;4986537;28;19913;-71
2023/04/05 02:11:53;;;;;;;;;;;1.80;99.90;;;;;;4993023;28;20243;-71
2023/04/05 02:14:19;;;;;;;;;;;1.70;99.90;;;;;;5020350;28;20323;-71
2023/04/05 02:16:45;;;;;;;;;;;1.60;99.90;;;;;;5016164;28;20392;-71
2023/04/05 02:19:12;;;;;;;;;;;1.70;99.90;;;;;;5003889;28;19913;-70
2023/04/05 02:21:37;;;;;;;;;;;1.70;99.90;;;;;;5012566;28;19999;-71
2023/04/05 02:24:03;;;;;;;;;;;1.60;99.90;;;;;;5003275;28;20004;-70
2023/04/05 02:26:29;;;;;;;;;;;1.70;99.90;;;;;;5029154;28;20283;-71
2023/04/05 02:28:55;;;;;;;;;;;1.80;99.90;;;;;;5027970;28;19917;-71
2023/04/05 02:31:20;;;;;;;;;;;1.80;99.90;;;;;;5003052;28;19913;-71
2023/04/05 02:33:47;;;;;;;;;;;1.70;99.90;;;;;;5005548;28;19991;-71
2023/04/05 02:36:13;;;;;;;;;;;1.70;99.90;;;;;;5013761;28;19931;-71
2023/04/05 02:38:38;;;;;;;;;;;1.70;99.90;;;;;;5028815;28;19917;-71
2023/04/05 02:41:07;;;;;;;;;;;1.80;99.90;;;;;;5001549;28;19910;-71
2023/04/05 02:43:34;;;;;;;;;;;1.80;99.90;;;;;;4997466;28;19932;-71
2023/04/05 02:45:59;;;;;;;;;;;1.80;99.90;;;;;;5002026;28;19996;-71
2023/04/05 02:48:25;;;;;;;;;;;1.80;99.90;;;;;;5013633;28;20011;-71
2023/04/05 02:50:51;;;;;;;;;;;1.90;99.90;;;;;;5008265;28;20000;-71
2023/04/05 02:53:17;;;;;;;;;;;1.90;99.90;;;;;;4979868;28;19913;-71
2023/04/05 02:55:50;;;;;;;;;;;1.90;99.90;;;;;;4996168;28;19929;-72
2023/04/05 02:58:16;;;;;;;;;;;2.00;99.90;;;;;;4995705;28;20011;-71
2023/04/05 03:00:44;;;;;;;;;;;1.90;99.90;;;;;;5002003;28;19917;-71
2023/04/05 03:03:10;;;;;;;;;;;1.90;99.90;;;;;;4996578;28;19917;-71
2023/04/05 03:05:36;;;;;;;;;;;2.00;99.90;;;;;;4992393;28;19913;-71
2023/04/05 03:08:01;;;;;;;;;;;1.90;99.90;;;;;;5008240;28;19913;-71
2023/04/05 03:10:31;;;;;;;;;;;1.80;99.90;;;;;;5008689;28;19920;-71
2023/04/05 03:12:57;;;;;;;;;;;1.80;99.90;;;;;;5008064;28;19921;-71
2023/04/05 03:15:23;;;;;;;;;;;1.90;99.90;;;;;;5025346;28;19928;-71
2023/04/05 03:17:48;;;;;;;;;;;1.90;99.90;;;;;;5009703;28;19913;-71
2023/04/05 03:20:14;;;;;;;;;;;1.90;99.90;;;;;;5006868;28;19915;-71
2023/04/05 03:22:40;;;;;;;;;;;1.90;99.90;;;;;;4982350;28;19913;-71
2023/04/05 03:25:06;;;;;;;;;;;1.90;99.90;;;;;;5027171;28;19972;-71
2023/04/05 03:27:31;;;;;;;;;;;1.90;99.90;;;;;;4987693;28;19952;-71
2023/04/05 03:29:57;;;;;;;;;;;1.70;99.90;;;;;;5032029;28;19913;-71
2023/04/05 03:32:23;;;;;;;;;;;1.70;99.90;;;;;;5008496;28;19913;-71
2023/04/05 03:34:48;;;;;;;;;;;1.70;99.90;;;;;;4991957;28;19913;-71
2023/04/05 03:37:14;;;;;;;;;;;1.80;99.90;;;;;;5017433;28;20020;-71
2023/04/05 03:39:40;;;;;;;;;;;1.80;99.90;;;;;;4985671;28;20238;-71
2023/04/05 03:42:06;;;;;;;;;;;1.80;99.90;;;;;;4995464;28;19928;-71
2023/04/05 03:44:31;;;;;;;;;;;1.80;99.90;;;;;;4994478;28;19948;-71
2023/04/05 03:46:57;;;;;;;;;;;1.80;99.90;;;;;;5012926;28;20017;-71
2023/04/05 03:49:23;;;;;;;;;;;1.90;99.90;;;;;;4999578;28;19909;-71
2023/04/05 03:51:49;;;;;;;;;;;1.80;99.90;;;;;;5008375;28;19922;-71
2023/04/05 03:54:15;;;;;;;;;;;1.80;99.90;;;;;;5003675;28;19917;-71
2023/04/05 03:56:41;;;;;;;;;;;1.80;99.90;;;;;;4992078;28;20330;-71
2023/04/05 03:59:06;;;;;;;;;;;1.90;99.90;;;;;;4996490;28;19924;-71
2023/04/05 04:01:32;;;;;;;;;;;1.90;99.90;;;;;;5025257;28;20215;-71
2023/04/05 04:03:59;;;;;;;;;;;1.80;99.90;;;;;;4973893;28;19917;-72
2023/04/05 04:06:25;;;;;;;;;;;1.80;99.90;;;;;;5007331;28;19939;-71
2023/04/05 04:08:51;;;;;;;;;;;1.80;99.90;;;;;;5011871;28;19921;-71
2023/04/05 04:11:17;;;;;;;;;;;1.90;99.90;;;;;;5018524;28;19917;-71
2023/04/05 04:13:42;;;;;;;;;;;2.00;99.90;;;;;;5010360;28;19967;-71
2023/04/05 04:16:08;;;;;;;;;;;1.90;99.90;;;;;;5005726;28;19925;-71
2023/04/05 04:18:34;;;;;;;;;;;1.90;99.90;;;;;;5019401;28;19913;-71
2023/04/05 04:21:05;;;;;;;;;;;1.80;99.90;;;;;;5028183;28;20416;-71
2023/04/05 04:23:33;;;;;;;;;;;1.80;99.90;;;;;;5013346;28;20348;-71
2023/04/05 04:26:01;;;;;;;;;;;1.90;99.90;;;;;;4994310;28;19940;-71
2023/04/05 04:28:28;;;;;;;;;;;1.90;99.90;;;;;;5014489;28;19924;-71
2023/04/05 04:30:53;;;;;;;;;;;1.90;99.90;;;;;;5013513;28;19919;-71
2023/04/05 04:33:19;;;;;;;;;;;1.90;99.90;;;;;;5001397;28;19913;-72
2023/04/05 04:35:46;;;;;;;;;;;1.90;99.90;;;;;;5025182;28;19988;-71
2023/04/05 04:38:17;;;;;;;;;;;1.90;99.90;;;;;;5023601;28;19939;-71
2023/04/05 04:40:45;;;;;;;;;;;2.00;99.90;;;;;;5022616;28;20317;-71
2023/04/05 04:43:13;;;;;;;;;;;2.10;99.90;;;;;;5005360;28;19920;-71
2023/04/05 04:45:39;;;;;;;;;;;2.10;99.90;;;;;;5023454;28;20245;-71
2023/04/05 04:48:04;;;;;;;;;;;2.00;99.90;;;;;;4997928;28;19913;-71
2023/04/05 04:50:33;;;;;;;;;;;2.10;99.90;;;;;;4993022;28;20320;-71
2023/04/05 04:52:59;;;;;;;;;;;2.10;99.90;;;;;;5000883;28;19913;-71
2023/04/05 04:55:26;;;;;;;;;;;2.20;99.90;;;;;;4990511;28;19928;-71
2023/04/05 04:57:52;;;;;;;;;;;2.20;99.90;;;;;;5012175;28;20238;-71
2023/04/05 05:00:19;;;;;;;;;;;2.20;99.90;;;;;;5000080;28;19923;-71
2023/04/05 05:02:45;;;;;;;;;;;2.30;99.90;;;;;;4994213;28;20310;-71
2023/04/05 05:05:10;;;;;;;;;;;2.30;99.90;;;;;;5028332;28;19913;-71
2023/04/05 05:07:37;;;;;;;;;;;2.30;99.90;;;;;;4997868;28;19977;-71
2023/04/05 05:10:03;;;;;;;;;;;2.20;99.90;;;;;;4994013;28;20400;-71
2023/04/05 05:12:30;;;;;;;;;;;2.20;99.90;;;;;;4983186;28;19965;-71
2023/04/05 05:14:56;;;;;;;;;;;2.30;99.90;;;;;;4997583;28;19925;-71
2023/04/05 05:17:22;;;;;;;;;;;2.30;99.90;;;;;;5016365;28;19921;-72
2023/04/05 05:19:48;;;;;;;;;;;2.40;99.90;;;;;;5017179;28;19920;-71
2023/04/05 05:22:13;;;;;;;;;;;2.40;99.90;;;;;;4984688;28;19913;-71
2023/04/05 05:24:39;;;;;;;;;;;2.40;99.90;;;;;;5015595;28;19972;-71
2023/04/05 05:27:05;;;;;;;;;;;2.30;99.90;;;;;;4993704;28;20598;-71
2023/04/05 05:29:31;;;;;;;;;;;2.30;99.90;;;;;;5015760;28;19913;-71
2023/04/05 05:31:58;;;;;;;;;;;2.30;99.90;;;;;;5006731;28;20334;-71
2023/04/05 05:34:24;;;;;;;;;;;2.40;99.90;;;;;;5006855;28;20389;-72
2023/04/05 05:36:51;;;;;;;;;;;2.40;99.90;;;;;;5031366;28;19924;-71
2023/04/05 05:39:16;;;;;;;;;;;2.30;99.90;;;;;;5005730;28;19963;-72
2023/04/05 05:41:43;;;;;;;;;;;2.30;99.90;;;;;;5010756;28;19932;-71
2023/04/05 05:44:08;;;;;;;;;;;2.30;99.90;;;;;;5005771;28;19920;-71
2023/04/05 05:46:34;;;;;;;;;;;2.40;99.90;;;;;;5009947;28;19944;-71
2023/04/05 05:49:00;;;;;;;;;;;2.50;99.90;;;;;;5033120;28;19923;-71
2023/04/05 05:51:26;;;;;;;;;;;2.50;99.90;;;;;;4979121;28;19913;-71
2023/04/05 05:53:51;;;;;;;;;;;2.60;99.90;;;;;;4977021;28;20006;-71
2023/04/05 05:56:17;;;;;;;;;;;2.60;99.90;;;;;;5027270;28;19913;-71
2023/04/05 05:58:43;;;;;;;;;;;2.70;99.90;;;;;;5004062;28;19917;-71
2023/04/05 06:01:12;;;;;;;;;;;2.70;99.90;;;;;;5007177;28;20344;-71
2023/04/05 06:03:38;;;;;;;;;;;2.70;99.90;;;;;;5025141;28;19917;-75
2023/04/05 06:06:09;;;;;;;;;;;2.70;99.90;;;;;;4978331;28;19924;-75
2023/04/05 06:08:35;;;;;;;;;;;2.70;99.90;;;;;;4997778;28;19977;-76
2023/04/05 06:11:01;;;;;;;;;;;2.80;99.90;;;;;;4985242;28;19917;-76
2023/04/05 06:13:26;;;;;;;;;;;2.70;99.90;;;;;;4998707;28;19917;-76
2023/04/05 06:15:52;;;;;;;;;;;2.70;99.90;;;;;;4994475;28;20015;-76
2023/04/05 06:18:19;;;;;;;;;;;2.70;99.90;;;;;;4981644;28;19913;-71
2023/04/05 06:20:45;;;;;;;;;;;2.70;99.90;;;;;;5027325;28;19952;-71
2023/04/05 06:23:10;;;;;;;;;;;2.80;99.90;;;;;;5014990;28;19961;-71
2023/04/05 06:25:36;;;;;;;;;;;2.80;99.90;;;;;;4990237;28;19913;-71
2023/04/05 06:28:02;;;;;;;;;;;2.90;99.90;;;;;;4973492;28;19917;-71
2023/04/05 06:30:27;;;;;;;;;;;2.90;99.90;;;;;;5009562;28;19909;-71
2023/04/05 06:32:53;;;;;;;;;;;2.90;99.90;;;;;;5024782;28;19912;-71
2023/04/05 06:35:19;;;;;;;;;;;3.00;99.90;;;;;;4990777;28;19913;-71
2023/04/05 06:37:45;;;;;;;;;;;2.90;99.90;;;;;;4980953;28;19913;-71
2023/04/05 06:40:10;;;;;;;;;;;3.00;99.90;;;;;;5009520;28;19916;-71
2023/04/05 06:42:36;;;;;;;;;;;2.90;99.90;;;;;;5025187;28;19913;-71
2023/04/05 06:45:03;;;;;;;;;;;3.00;99.90;;;;;;5015119;28;19976;-71
2023/04/05 06:47:33;;;;;;;;;;;3.00;99.90;;;;;;4993252;28;19913;-72
2023/04/05 06:49:59;;;;;;;;;;;3.10;99.90;;;;;;4987139;28;19913;-71
2023/04/05 06:52:25;;;;;;;;;;;3.10;99.90;;;;;;5029649;28;19913;-71
2023/04/05 06:54:51;;;;;;;;;;;3.20;99.90;;;;;;4992763;28;19939;-71
2023/04/05 06:57:17;;;;;;;;;;;3.30;99.90;;;;;;5005701;28;20515;-71
2023/04/05 06:59:43;;;;;;;;;;;3.30;99.90;;;;;;5019357;28;19912;-71
2023/04/05 07:02:08;;;;;;;;;;;3.30;99.90;;;;;;5011571;28;20368;-71
2023/04/05 07:04:35;;;;;;;;;;;3.30;99.90;;;;;;5002135;28;19913;-71
2023/04/05 07:07:01;;;;;;;;;;;3.40;99.90;;;;;;5025763;28;19913;-71
2023/04/05 07:09:29;;;;;;;;;;;3.50;99.90;;;;;;4997272;28;19913;-71
2023/04/05 07:11:56;;;;;;;;;;;3.50;99.90;;;;;;5025543;28;20357;-71
2023/04/05 07:14:21;;;;;;;;;;;3.50;99.90;;;;;;4993552;28;20091;-71
2023/04/05 07:16:48;;;;;;;;;;;3.50;99.90;;;;;;4993492;28;19926;-71
2023/04/05 07:19:14;;;;;;;;;;;3.60;99.90;;;;;;5012680;28;19913;-71
2023/04/05 07:21:39;;;;;;;;;;;3.70;99.90;;;;;;4997171;28;19943;-71
2023/04/05 07:24:05;;;;;;;;;;;3.70;99.90;;;;;;5028679;28;19917;-72
2023/04/05 07:26:34;;;;;;;;;;;3.70;99.90;;;;;;5031704;28;19909;-71
2023/04/05 07:29:00;;;;;;;;;;;3.80;99.90;;;;;;5011344;28;19943;-72
2023/04/05 07:31:26;;;;;;;;;;;3.90;99.90;;;;;;4997957;28;19909;-71
2023/04/05 07:33:52;;;;;;;;;;;3.90;99.90;;;;;;4995605;28;19921;-71
2023/04/05 07:36:18;;;;;;;;;;;3.90;99.90;;;;;;4988717;28;19975;-71
2023/04/05 07:38:44;;;;;;;;;;;4.00;99.90;;;;;;4971065;28;19913;-71
2023/04/05 07:41:10;;;;;;;;;;;4.00;99.90;;;;;;5024406;28;19915;-71
2023/04/05 07:43:36;;;;;;;;;;;4.00;99.90;;;;;;5012689;28;19949;-71
2023/04/05 07:46:04;;;;;;;;;;;4.10;99.90;;;;;;4972577;28;20391;-71
2023/04/05 07:48:30;;;;;;;;;;;4.20;99.90;;;;;;4988880;28;19909;-71
2023/04/05 07:50:56;;;;;;;;;;;4.30;99.90;;;;;;4990306;28;19916;-71
2023/04/05 07:53:22;;;;;;;;;;;4.30;99.90;;;;;;4998017;28;19912;-72
2023/04/05 07:55:48;;;;;;;;;;;4.30;99.90;;;;;;5024006;28;19914;-71
2023/04/05 07:58:15;;;;;;;;;;;4.40;99.90;;;;;;5027720;28;19920;-71
2023/04/05 08:00:40;;;;;;;;;;;4.40;99.90;;;;;;4991921;28;19912;-71
2023/04/05 08:03:06;;;;;;;;;;;4.50;99.90;;;;;;4990345;28;20067;-71
2023/04/05 08:05:32;;;;;;;;;;;4.60;99.90;;;;;;4995866;28;19923;-71
2023/04/05 08:07:57;;;;;;;;;;;4.70;99.90;;;;;;5005277;28;19913;-71
2023/04/05 08:10:23;;;;;;;;;;;4.70;99.90;;;;;;5020149;28;19920;-71
2023/04/05 08:12:49;;;;;;;;;;;4.80;99.90;;;;;;5000713;28;20376;-71
2023/04/05 08:15:14;;;;;;;;;;;4.90;99.90;;;;;;5029131;28;19920;-71
2023/04/05 08:17:40;;;;;;;;;;;4.90;99.90;;;;;;5022545;28;20311;-71
2023/04/05 08:20:06;;;;;;;;;;;4.90;99.90;;;;;;5027930;28;19958;-71
2023/04/05 08:22:32;;;;;;;;;;;4.90;99.90;;;;;;4995439;28;19912;-71
2023/04/05 08:24:58;;;;;;;;;;;5.10;99.90;;;;;;5006987;28;19921;-71
2023/04/05 08:27:23;;;;;;;;;;;5.20;99.90;;;;;;4992448;28;20540;-71
2023/04/05 08:29:49;;;;;;;;;;;5.20;99.90;;;;;;5026746;28;19991;-71
2023/04/05 08:32:15;;;;;;;;;;;5.30;99.90;;;;;;5020538;28;19917;-71
2023/04/05 08:34:40;;;;;;;;;;;5.40;99.90;;;;;;5007960;28;19920;-71
2023/04/05 08:37:06;;;;;;;;;;;5.30;99.90;;;;;;5011797;28;19921;-71
2023/04/05 08:39:33;;;;;;;;;;;5.40;99.90;;;;;;5020335;28;19913;-71
2023/04/05 08:42:02;;;;;;;;;;;5.50;99.90;;;;;;5007449;28;20008;-71
2023/04/05 08:44:28;;;;;;;;;;;5.70;99.90;;;;;;5004324;28;19913;-71
2023/04/05 08:46:54;;;;;;;;;;;5.70;99.50;;;;;;5008638;28;19920;-71
2023/04/05 08:49:20;;;;;;;;;;;5.80;99.60;;;;;;5004780;28;19910;-71
2023/04/05 08:51:45;;;;;;;;;;;5.90;99.50;;;;;;5013320;28;19920;-71
2023/04/05 08:54:11;;;;;;;;;;;6.00;97.90;;;;;;5005411;28;19923;-71
2023/04/05 08:56:37;;;;;;;;;;;6.10;98.30;;;;;;4981033;28;19996;-71
2023/04/05 08:59:04;;;;;;;;;;;6.20;97.80;;;;;;5001740;28;19917;-71
2023/04/05 09:01:30;;;;;;;;;;;6.30;98.50;;;;;;4984358;28;20000;-72
2023/04/05 09:03:56;;;;;;;;;;;6.60;97.20;;;;;;4992114;28;19945;-71
2023/04/05 09:06:21;;;;;;;;;;;6.70;97.20;;;;;;5009500;28;19909;-71
2023/04/05 09:08:47;;;;;;;;;;;6.60;92.80;;;;;;5006947;28;19916;-71
2023/04/05 09:11:13;;;;;;;;;;;6.70;93.50;;;;;;4991024;28;19913;-72
2023/04/05 09:13:39;;;;;;;;;;;6.70;93.70;;;;;;4978110;28;19995;-72
2023/04/05 09:16:04;;;;;;;;;;;6.90;94.00;;;;;;5030005;28;19943;-71
2023/04/05 09:18:30;;;;;;;;;;;6.90;91.60;;;;;;4989685;28;19974;-71
2023/04/05 09:21:05;;;;;;;;;;;6.80;89.40;;;;;;4987124;28;19936;-72
2023/04/05 09:23:32;;;;;;;;;;;6.90;87.80;;;;;;5020534;28;20341;-72
2023/04/05 09:25:58;;;;;;;;;;;6.80;84.40;;;;;;4994356;28;19913;-71
2023/04/05 09:28:38;;;;;;;;;;;6.90;82.90;;;;;;5004508;28;19939;-72
2023/04/05 09:31:04;;;;;;;;;;;6.90;86.60;;;;;;5010162;28;20007;-72
2023/04/05 09:33:30;;;;;;;;;;;7.00;87.00;;;;;;5012832;28;20000;-72
2023/04/05 09:35:55;;;;;;;;;;;7.00;88.00;;;;;;4996762;28;19960;-72
2023/04/05 09:38:26;;;;;;;;;;;7.00;80.10;;;;;;5009602;28;19952;-72
2023/04/05 09:40:52;;;;;;;;;;;6.70;79.20;;;;;;5017197;28;20634;-71
2023/04/05 09:43:36;;;;;;;;;;;6.80;77.40;;;;;;5007182;28;19992;-71
2023/04/05 09:46:02;;;;;;;;;;;6.70;78.80;;;;;;5019502;28;20245;-71
2023/04/05 09:48:46;;;;;;;;;;;6.80;77.10;;;;;;5013450;28;20314;-71
2023/04/05 09:51:15;;;;;;;;;;;6.90;79.30;;;;;;5025880;28;19909;-71
2023/04/05 09:54:00;;;;;;;;;;;7.00;78.10;;;;;;5008139;28;19909;-72
2023/04/05 09:56:26;;;;;;;;;;;6.90;72.80;;;;;;5007298;28;19944;-72
2023/04/05 09:58:52;;;;;;;;;;;7.00;71.40;;;;;;5015834;28;20308;-72
2023/04/05 10:01:18;;;;;;;;;;;6.90;69.90;;;;;;5010794;28;19913;-72
2023/04/05 10:03:47;;;;;;;;;;;6.80;73.70;;;;;;5021604;28;19913;-71
2023/04/05 10:06:13;;;;;;;;;;;6.90;73.50;;;;;;4983731;28;19913;-71
2023/04/05 10:08:39;;;;;;;;;;;7.00;73.70;;;;;;5030188;28;20490;-73
2023/04/05 10:11:04;;;;;;;;;;;7.10;73.50;;;;;;5010967;28;19917;-72
2023/04/05 10:13:30;;;;;;;;;;;7.10;71.40;;;;;;5024236;28;19925;-72
2023/04/05 10:15:55;;;;;;;;;;;7.10;67.90;;;;;;5011000;28;19987;-72
2023/04/05 10:18:22;;;;;;;;;;;7.00;66.10;;;;;;5025046;28;19917;-71
2023/04/05 10:20:48;;;;;;;;;;;7.10;69.20;;;;;;4983755;28;19909;-71
2023/04/05 10:23:21;;;;;;;;;;;6.90;64.20;;;;;;5025350;28;19917;-71
2023/04/05 10:25:46;;;;;;;;;;;6.90;66.00;;;;;;5008181;28;19945;-71
2023/04/05 10:28:21;;;;;;;;;;;7.10;64.40;;;;;;5028502;28;19944;-71
2023/04/05 10:30:48;;;;;;;;;;;7.10;66.50;;;;;;5007415;28;20004;-71
2023/04/05 10:33:23;;;;;;;;;;;7.10;63.40;;;;;;5002060;28;19913;-71
2023/04/05 10:36:25;;;;;;;;;;;7.00;62.90;;;;;;5007998;28;19924;-71
2023/04/05 10:39:00;;;;;;;;;;;7.00;65.60;;;;;;4929488;28;21404;-71
2023/04/05 10:41:26;;;;;;;;;;;7.30;66.40;;;;;;4995585;28;19928;-71
2023/04/05 10:43:51;;;;;;;;;;;7.40;65.60;;;;;;5000275;28;19917;-71
2023/04/05 10:46:18;;;;;;;;;;;7.50;64.60;;;;;;5010239;28;19909;-71
2023/04/05 10:48:57;;;;;;;;;;;7.50;64.80;;;;;;4995983;28;20015;-71
2023/04/05 10:51:23;;;;;;;;;;;7.70;63.60;;;;;;5008535;28;19917;-71
2023/04/05 10:53:48;;;;;;;;;;;7.70;64.40;;;;;;4997581;28;20329;-71
2023/04/05 10:56:14;;;;;;;;;;;7.70;61.90;;;;;;5010105;28;19917;-71
2023/04/05 10:58:41;;;;;;;;;;;7.60;61.40;;;;;;5009116;28;19912;-71
2023/04/05 11:01:08;;;;;;;;;;;7.80;64.00;;;;;;4998538;28;19922;-71
2023/04/05 11:03:40;;;;;;;;;;;7.80;61.10;;;;;;4992776;28;20284;-71
2023/04/05 11:06:27;;;;;;;;;;;7.60;59.10;;;;;;5009374;28;19913;-71
2023/04/05 11:09:00;;;;;;;;;;;7.40;58.30;;;;;;5014531;28;19995;-71
2023/04/05 11:11:26;;;;;;;;;;;7.30;58.70;;;;;;4997177;28;20000;-71
2023/04/05 11:13:53;;;;;;;;;;;7.20;58.60;;;;;;5008511;28;19923;-71
2023/04/05 11:16:19;;;;;;;;;;;7.40;60.20;;;;;;5025880;28;19971;-71
2023/04/05 11:18:48;;;;;;;;;;;7.30;59.50;;;;;;4988780;28;20432;-72
2023/04/05 11:21:23;;;;;;;;;;;7.40;59.50;;;;;;4997096;28;19944;-72
2023/04/05 11:23:59;;;;;;;;;;;7.50;59.50;;;;;;5011836;28;19919;-72
2023/04/05 11:26:32;;;;;;;;;;;7.60;60.60;;;;;;4997775;28;19975;-73
2023/04/05 11:28:58;;;;;;;;;;;7.80;60.90;;;;;;4997020;28;20000;-73
2023/04/05 11:31:25;;;;;;;;;;;7.90;61.20;;;;;;5006399;28;19996;-73
2023/04/05 11:33:58;;;;;;;;;;;7.90;58.30;;;;;;4997723;28;20282;-73
2023/04/05 11:36:33;;;;;;;;;;;7.90;61.30;;;;;;5027114;28;20338;-73
2023/04/05 11:39:17;;;;;;;;;;;8.10;58.80;;;;;;5022678;28;20370;-73
2023/04/05 11:41:46;;;;;;;;;;;8.20;59.00;;;;;;5011864;28;19913;-74
2023/04/05 11:44:17;;;;;;;;;;;8.10;57.10;;;;;;4998699;28;19913;-73
2023/04/05 11:46:45;;;;;;;;;;;8.20;59.40;;;;;;4992751;28;19924;-73
2023/04/05 11:49:14;;;;;;;;;;;8.20;59.20;;;;;;4995279;28;20345;-73
2023/04/05 11:51:47;;;;;;;;;;;8.30;59.00;;;;;;4993029;28;19923;-72
2023/04/05 11:54:13;;;;;;;;;;;8.40;60.60;;;;;;5010317;28;19932;-73
2023/04/05 11:56:39;;;;;;;;;;;8.40;60.40;;;;;;5013770;28;19931;-73
2023/04/05 11:59:04;;;;;;;;;;;8.40;58.50;;;;;;4997893;28;19922;-73
2023/04/05 12:01:30;;;;;;;;;;;8.40;58.90;;;;;;4990991;28;20592;-72
2023/04/05 12:03:55;;;;;;;;;;;8.40;58.80;;;;;;5004283;28;19917;-73
2023/04/05 12:06:23;;;;;;;;;;;8.50;60.70;;;;;;4985095;28;19917;-73
2023/04/05 12:08:49;;;;;;;;;;;8.60;58.40;;;;;;5012270;28;20027;-73
2023/04/05 12:11:44;;;;;;;;;;;8.40;57.80;;;;;;5011958;28;20633;-73
2023/04/05 12:14:10;;;;;;;;;;;8.50;58.40;;;;;;4997412;28;20007;-72
2023/04/05 12:16:35;;;;;;;;;;;8.50;57.00;;;;;;4994606;28;20464;-74
2023/04/05 12:19:02;;;;;;;;;;;8.20;55.90;;;;;;5005283;28;20199;-74
2023/04/05 12:21:28;;;;;;;;;;;8.20;58.40;;;;;;5022806;28;19909;-73
2023/04/05 12:23:54;;;;;;;;;;;8.40;58.90;;;;;;4991831;28;19909;-72
2023/04/05 12:26:21;;;;;;;;;;;8.50;58.30;;;;;;5009827;28;19916;-73
2023/04/05 12:28:53;;;;;;;;;;;8.60;59.10;;;;;;4991696;28;19923;-73
2023/04/05 12:31:37;;;;;;;;;;;8.50;57.00;;;;;;4993488;28;20245;-73
2023/04/05 12:34:03;;;;;;;;;;;8.40;57.60;;;;;;5021766;28;19956;-72
2023/04/05 12:36:30;;;;;;;;;;;8.60;57.30;;;;;;5027155;28;19967;-73
2023/04/05 12:38:56;;;;;;;;;;;8.70;55.80;;;;;;5020822;28;19936;-73
2023/04/05 12:41:28;;;;;;;;;;;9.20;55.00;;;;;;5026223;28;20022;-74
2023/04/05 12:43:59;;;;;;;;;;;9.70;52.90;;;;;;4976609;28;20335;-72
2023/04/05 12:46:37;;;;;;;;;;;10.00;51.60;;;;;;4991483;28;19917;-73
2023/04/05 12:49:03;;;;;;;;;;;10.10;51.00;;;;;;4996597;28;19967;-74
2023/04/05 12:51:30;;;;;;;;;;;10.30;51.30;;;;;;4990292;28;19955;-75
2023/04/05 12:53:56;;;;;;;;;;;10.70;50.00;;;;;;4980563;28;19914;-76
2023/04/05 12:56:21;;;;;;;;;;;11.10;51.20;;;;;;5016152;28;19943;-77
2023/04/05 12:58:48;;;;;;;;;;;11.40;52.90;;;;;;4999029;28;20458;-77
2023/04/05 13:01:14;;;;;;;;;;;11.80;52.70;;;;;;4995714;28;20345;-77
2023/04/05 13:03:42;;;;;;;;;;;11.90;49.70;;;;;;5011364;28;19921;-75
2023/04/05 13:06:08;;;;;;;;;;;12.00;49.50;;;;;;4996959;28;19944;-75
2023/04/05 13:08:33;;;;;;;;;;;12.00;49.50;;;;;;4980153;28;19913;-76
2023/04/05 13:10:59;;;;;;;;;;;12.00;49.20;;;;;;4973069;28;19923;-76
2023/04/05 13:13:25;;;;;;;;;;;11.60;48.00;;;;;;4968456;28;19987;-77
2023/04/05 13:15:50;;;;;;;;;;;11.50;48.10;;;;;;4994170;28;19917;-76
2023/04/05 13:18:16;;;;;;;;;;;11.60;48.20;;;;;;5017491;28;20357;-76
2023/04/05 13:20:42;;;;;;;;;;;11.70;47.90;;;;;;4991250;28;19975;-78
2023/04/05 13:23:09;;;;;;;;;;;12.40;49.40;;;;;;4997822;28;19913;-77
2023/04/05 13:25:44;;;;;;;;;;;12.70;44.20;;;;;;4994435;28;20289;-77
2023/04/05 13:28:10;;;;;;;;;;;13.10;47.30;;;;;;4993609;28;19980;-77
2023/04/05 13:30:36;;;;;;;;;;;13.70;44.70;;;;;;5005252;28;19921;-77
2023/04/05 13:33:03;;;;;;;;;;;13.80;45.40;;;;;;4995606;28;20334;-79
2023/04/05 13:35:29;;;;;;;;;;;13.80;42.10;;;;;;5001248;28;19917;-78
2023/04/05 13:37:54;;;;;;;;;;;13.00;44.60;;;;;;5005671;28;19916;-78
2023/04/05 13:40:20;;;;;;;;;;;13.40;43.60;;;;;;5004845;28;19920;-78
2023/04/05 13:42:47;;;;;;;;;;;14.50;41.70;;;;;;4993058;28;19917;-77
2023/04/05 13:45:13;;;;;;;;;;;14.20;41.80;;;;;;5013403;28;19920;-77
2023/04/05 13:47:38;;;;;;;;;;;14.60;39.90;;;;;;5013092;28;20238;-77
2023/04/05 13:50:05;;;;;;;;;;;14.60;41.60;;;;;;4991898;28;20622;-78
2023/04/05 13:52:32;;;;;;;;;;;14.30;38.80;;;;;;5017075;28;19920;-78
2023/04/05 13:54:57;;;;;;;;;;;13.60;41.90;;;;;;4998067;28;19997;-78
2023/04/05 13:57:23;;;;;;;;;;;14.90;42.10;;;;;;4985048;28;20011;-78
2023/04/05 13:59:49;;;;;;;;;;;15.10;39.80;;;;;;4982308;28;19912;-78
2023/04/05 14:02:16;;;;;;;;;;;15.10;40.80;;;;;;5020411;28;19913;-77
2023/04/05 14:04:42;;;;;;;;;;;15.30;39.60;;;;;;5003608;28;19931;-78
2023/04/05 14:07:07;;;;;;;;;;;15.70;38.00;;;;;;5004817;28;19913;-79
2023/04/05 14:09:33;;;;;;;;;;;15.10;38.10;;;;;;5009758;28;19913;-79
2023/04/05 14:12:00;;;;;;;;;;;15.20;39.40;;;;;;4993601;28;19932;-78
2023/04/05 14:14:26;;;;;;;;;;;15.80;40.30;;;;;;5012692;28;20336;-79
2023/04/05 14:16:52;;;;;;;;;;;15.90;37.50;;;;;;4991918;28;19917;-73
2023/04/05 14:19:18;;;;;;;;;;;15.30;37.80;;;;;;4985728;28;19943;-73
2023/04/05 14:21:44;;;;;;;;;;;15.30;37.70;;;;;;5005939;28;19923;-73
2023/04/05 14:24:09;;;;;;;;;;;15.20;37.10;;;;;;5003483;28;20000;-73
2023/04/05 14:26:35;;;;;;;;;;;14.90;37.80;;;;;;4986615;28;19920;-73
2023/04/05 14:29:01;;;;;;;;;;;13.10;39.40;;;;;;4987246;28;19909;-73